sensor_id;sensor_type;location;lat;lon;timestamp;temperature;humidity
19646;DHT22;9971;52.446;13.452;2023-09-18T04:58:46;17.20;99.90
19646;DHT22;9971;52.446;13.452;2023-09-18T05:25:42;17.40;99.90
19646;DHT22;9971;52.446;13.452;2023-09-18T05:47:04;18.00;99.90
19646;DHT22;9971;52.446;13.452;2023-09-18T06:46:00;20.00;99.90
19646;DHT22;9971;52.446;13.452;2023-09-18T06:51:02;20.20;99.90
19646;DHT22;9971;52.446;13.452;2023-09-18T06:56:05;20.20;99.90
19646;DHT22;9971;52.446;13.452;2023-09-18T07:01:09;20.40;99.90
19646;DHT22;9971;52.446;13.452;2023-09-18T07:06:11;20.50;99.90
19646;DHT22;9971;52.446;13.452;2023-09-18T07:11:14;20.70;99.90
19646;DHT22;9971;52.446;13.452;2023-09-18T07:16:16;20.90;99.90
19646;DHT22;9971;52.446;13.452;2023-09-18T07:21:19;21.00;99.90
19646;DHT22;9971;52.446;13.452;2023-09-18T07:26:23;21.20;99.90
19646;DHT22;9971;52.446;13.452;2023-09-18T07:31:25;21.40;99.90
19646;DHT22;9971;52.446;13.452;2023-09-18T07:36:28;21.50;99.90
19646;DHT22;9971;52.446;13.452;2023-09-18T07:41:30;21.70;99.90
19646;DHT22;9971;52.446;13.452;2023-09-18T07:46:32;21.80;99.90
19646;DHT22;9971;52.446;13.452;2023-09-18T07:51:35;22.00;99.90
19646;DHT22;9971;52.446;13.452;2023-09-18T07:56:38;22.20;99.90
19646;DHT22;9971;52.446;13.452;2023-09-18T08:01:41;22.40;99.90
19646;DHT22;9971;52.446;13.452;2023-09-18T08:06:43;22.60;99.90
19646;DHT22;9971;52.446;13.452;2023-09-18T08:11:46;22.70;99.90
19646;DHT22;9971;52.446;13.452;2023-09-18T08:16:48;22.90;99.90
19646;DHT22;9971;52.446;13.452;2023-09-18T08:21:50;23.10;99.90
19646;DHT22;9971;52.446;13.452;2023-09-18T08:26:53;23.30;99.90
19646;DHT22;9971;52.446;13.452;2023-09-18T08:31:55;23.50;99.90
19646;DHT22;9971;52.446;13.452;2023-09-18T08:36:58;23.80;99.90
19646;DHT22;9971;52.446;13.452;2023-09-18T08:42:02;24.20;99.90
19646;DHT22;9971;52.446;13.452;2023-09-18T08:47:02;24.40;99.90
19646;DHT22;9971;52.446;13.452;2023-09-18T08:52:05;24.70;99.90
19646;DHT22;9971;52.446;13.452;2023-09-18T08:57:07;24.80;99.90
19646;DHT22;9971;52.446;13.452;2023-09-18T09:23:49;26.00;99.90
19646;DHT22;9971;52.446;13.452;2023-09-18T09:28:50;26.00;99.90
19646;DHT22;9971;52.446;13.452;2023-09-18T09:33:52;26.20;99.90
19646;DHT22;9971;52.446;13.452;2023-09-18T09:38:56;26.30;99.90
19646;DHT22;9971;52.446;13.452;2023-09-18T09:43:59;26.30;99.90
19646;DHT22;9971;52.446;13.452;2023-09-18T09:49:02;26.80;99.90
19646;DHT22;9971;52.446;13.452;2023-09-18T09:54:04;27.00;99.90
19646;DHT22;9971;52.446;13.452;2023-09-18T09:59:06;27.00;99.90
19646;DHT22;9971;52.446;13.452;2023-09-18T10:04:13;27.10;99.90
19646;DHT22;9971;52.446;13.452;2023-09-18T10:09:15;27.10;99.90
19646;DHT22;9971;52.446;13.452;2023-09-18T10:14:19;27.10;99.90
19646;DHT22;9971;52.446;13.452;2023-09-18T10:19:28;27.20;99.90
19646;DHT22;9971;52.446;13.452;2023-09-18T10:24:29;27.30;99.90
19646;DHT22;9971;52.446;13.452;2023-09-18T10:29:32;27.30;99.90
19646;DHT22;9971;52.446;13.452;2023-09-18T10:34:33;27.40;99.90
19646;DHT22;9971;52.446;13.452;2023-09-18T10:39:37;27.30;99.90
19646;DHT22;9971;52.446;13.452;2023-09-18T10:44:37;27.20;99.90
19646;DHT22;9971;52.446;13.452;2023-09-18T10:49:40;27.10;99.90
19646;DHT22;9971;52.446;13.452;2023-09-18T10:54:42;27.10;99.90
19646;DHT22;9971;52.446;13.452;2023-09-18T10:59:45;27.20;99.90
19646;DHT22;9971;52.446;13.452;2023-09-18T11:04:46;27.40;99.90
19646;DHT22;9971;52.446;13.452;2023-09-18T11:09:49;27.50;99.90
19646;DHT22;9971;52.446;13.452;2023-09-18T11:14:58;27.50;99.90
19646;DHT22;9971;52.446;13.452;2023-09-18T11:20:03;27.30;99.90
19646;DHT22;9971;52.446;13.452;2023-09-18T11:30:17;27.10;99.90
19646;DHT22;9971;52.446;13.452;2023-09-18T11:35:20;27.00;99.90
19646;DHT22;9971;52.446;13.452;2023-09-18T11:40:29;26.90;99.90
19646;DHT22;9971;52.446;13.452;2023-09-18T11:45:30;26.80;99.90
19646;DHT22;9971;52.446;13.452;2023-09-18T11:50:32;26.80;99.90
19646;DHT22;9971;52.446;13.452;2023-09-18T11:55:34;26.70;99.90
19646;DHT22;9971;52.446;13.452;2023-09-18T12:00:37;26.70;99.90
19646;DHT22;9971;52.446;13.452;2023-09-18T12:05:39;26.70;99.90
19646;DHT22;9971;52.446;13.452;2023-09-18T12:10:41;26.70;99.90
19646;DHT22;9971;52.446;13.452;2023-09-18T12:15:44;26.80;99.90
19646;DHT22;9971;52.446;13.452;2023-09-18T12:20:47;27.00;99.90
19646;DHT22;9971;52.446;13.452;2023-09-18T12:25:49;27.30;99.90
19646;DHT22;9971;52.446;13.452;2023-09-18T12:30:51;27.70;99.90
19646;DHT22;9971;52.446;13.452;2023-09-18T12:35:53;27.70;99.90
19646;DHT22;9971;52.446;13.452;2023-09-18T12:40:55;27.60;99.90
19646;DHT22;9971;52.446;13.452;2023-09-18T12:45:57;27.60;99.90
19646;DHT22;9971;52.446;13.452;2023-09-18T12:51:03;27.50;99.90
19646;DHT22;9971;52.446;13.452;2023-09-18T12:56:07;27.30;99.90
19646;DHT22;9971;52.446;13.452;2023-09-18T13:01:09;27.30;99.90
19646;DHT22;9971;52.446;13.452;2023-09-18T13:06:11;27.20;99.90
19646;DHT22;9971;52.446;13.452;2023-09-18T13:11:13;27.10;99.90
19646;DHT22;9971;52.446;13.452;2023-09-18T13:16:15;26.90;99.90
19646;DHT22;9971;52.446;13.452;2023-09-18T13:21:17;26.70;99.90
19646;DHT22;9971;52.446;13.452;2023-09-18T13:26:20;26.30;99.90
19646;DHT22;9971;52.446;13.452;2023-09-18T13:31:21;26.20;99.90
19646;DHT22;9971;52.446;13.452;2023-09-18T13:36:24;26.10;99.90
19646;DHT22;9971;52.446;13.452;2023-09-18T13:41:26;26.00;99.90
19646;DHT22;9971;52.446;13.452;2023-09-18T13:46:29;25.80;99.90
19646;DHT22;9971;52.446;13.452;2023-09-18T13:51:31;25.60;99.90
19646;DHT22;9971;52.446;13.452;2023-09-18T13:56:33;25.20;99.90
19646;DHT22;9971;52.446;13.452;2023-09-18T14:01:36;25.00;99.90
19646;DHT22;9971;52.446;13.452;2023-09-18T14:06:38;24.90;99.90
19646;DHT22;9971;52.446;13.452;2023-09-18T14:11:41;24.80;99.90
19646;DHT22;9971;52.446;13.452;2023-09-18T14:16:43;24.80;99.90
19646;DHT22;9971;52.446;13.452;2023-09-18T14:21:46;24.90;99.90
19646;DHT22;9971;52.446;13.452;2023-09-18T14:26:48;24.90;99.90
19646;DHT22;9971;52.446;13.452;2023-09-18T14:53:16;25.00;99.90
19646;DHT22;9971;52.446;13.452;2023-09-18T15:19:42;25.30;99.90
19646;DHT22;9971;52.446;13.452;2023-09-18T15:24:45;25.30;99.90
19646;DHT22;9971;52.446;13.452;2023-09-18T16:23:19;24.60;99.90
19646;DHT22;9971;52.446;13.452;2023-09-18T17:11:26;22.80;99.90
19646;DHT22;9971;52.446;13.452;2023-09-18T17:16:30;22.60;99.90
19646;DHT22;9971;52.446;13.452;2023-09-18T17:21:33;22.40;99.90
19646;DHT22;9971;52.446;13.452;2023-09-18T17:26:36;22.20;99.90
19646;DHT22;9971;52.446;13.452;2023-09-18T17:31:39;22.10;99.90
19646;DHT22;9971;52.446;13.452;2023-09-18T17:36:41;22.00;99.90
19646;DHT22;9971;52.446;13.452;2023-09-18T17:41:44;21.90;99.90
19646;DHT22;9971;52.446;13.452;2023-09-18T17:46:47;21.80;99.90
19646;DHT22;9971;52.446;13.452;2023-09-18T17:51:49;21.70;99.90
19646;DHT22;9971;52.446;13.452;2023-09-18T17:56:52;21.70;99.90
19646;DHT22;9971;52.446;13.452;2023-09-18T18:01:57;21.60;99.90
19646;DHT22;9971;52.446;13.452;2023-09-18T18:07:03;21.60;99.90
19646;DHT22;9971;52.446;13.452;2023-09-18T18:12:07;21.50;99.90
19646;DHT22;9971;52.446;13.452;2023-09-18T18:17:10;21.50;99.90
19646;DHT22;9971;52.446;13.452;2023-09-18T18:22:13;21.60;99.90
19646;DHT22;9971;52.446;13.452;2023-09-18T18:27:15;21.50;99.90
19646;DHT22;9971;52.446;13.452;2023-09-18T18:32:18;21.60;99.90
19646;DHT22;9971;52.446;13.452;2023-09-18T18:37:23;21.60;99.90
19646;DHT22;9971;52.446;13.452;2023-09-18T18:42:25;21.50;99.90
19646;DHT22;9971;52.446;13.452;2023-09-18T18:47:29;21.50;99.90
19646;DHT22;9971;52.446;13.452;2023-09-18T18:52:34;21.60;99.90
19646;DHT22;9971;52.446;13.452;2023-09-18T18:57:37;21.60;99.90
19646;DHT22;9971;52.446;13.452;2023-09-18T19:02:40;21.60;99.90
19646;DHT22;9971;52.446;13.452;2023-09-18T19:07:43;21.60;99.90
19646;DHT22;9971;52.446;13.452;2023-09-18T19:12:45;21.60;99.90
19646;DHT22;9971;52.446;13.452;2023-09-18T19:17:49;21.60;99.90
19646;DHT22;9971;52.446;13.452;2023-09-18T19:28:12;21.50;99.90
19646;DHT22;9971;52.446;13.452;2023-09-18T19:33:16;21.50;99.90
19646;DHT22;9971;52.446;13.452;2023-09-18T19:59:39;21.40;99.90
19646;DHT22;9971;52.446;13.452;2023-09-18T20:04:41;21.30;99.90
19646;DHT22;9971;52.446;13.452;2023-09-18T20:09:44;21.20;99.90
19646;DHT22;9971;52.446;13.452;2023-09-18T20:14:48;21.20;99.90
19646;DHT22;9971;52.446;13.452;2023-09-18T20:19:49;21.10;99.90
19646;DHT22;9971;52.446;13.452;2023-09-18T20:24:51;21.00;99.90
19646;DHT22;9971;52.446;13.452;2023-09-18T20:29:53;20.90;99.90
19646;DHT22;9971;52.446;13.452;2023-09-18T20:34:56;20.80;99.90
19646;DHT22;9971;52.446;13.452;2023-09-18T20:39:59;20.70;99.90
19646;DHT22;9971;52.446;13.452;2023-09-18T20:45:01;20.70;99.90
19646;DHT22;9971;52.446;13.452;2023-09-18T20:50:05;20.60;99.90
19646;DHT22;9971;52.446;13.452;2023-09-18T20:55:08;20.50;99.90
19646;DHT22;9971;52.446;13.452;2023-09-18T21:00:12;20.50;99.90
19646;DHT22;9971;52.446;13.452;2023-09-18T21:05:15;20.40;99.90
19646;DHT22;9971;52.446;13.452;2023-09-18T21:10:18;20.30;99.90
19646;DHT22;9971;52.446;13.452;2023-09-18T21:15:20;20.30;99.90
19646;DHT22;9971;52.446;13.452;2023-09-18T21:20:23;20.20;99.90
19646;DHT22;9971;52.446;13.452;2023-09-18T21:25:26;20.20;99.90
19646;DHT22;9971;52.446;13.452;2023-09-18T21:30:28;20.20;99.90
19646;DHT22;9971;52.446;13.452;2023-09-18T21:35:31;20.10;99.90
19646;DHT22;9971;52.446;13.452;2023-09-18T21:40:33;20.10;99.90
19646;DHT22;9971;52.446;13.452;2023-09-18T21:45:36;20.00;99.90
19646;DHT22;9971;52.446;13.452;2023-09-18T21:50:38;20.00;99.90
19646;DHT22;9971;52.446;13.452;2023-09-18T21:55:44;19.90;99.90
19646;DHT22;9971;52.446;13.452;2023-09-18T22:00:55;19.90;99.90
19646;DHT22;9971;52.446;13.452;2023-09-18T22:05:57;19.80;99.90
19646;DHT22;9971;52.446;13.452;2023-09-18T22:10:59;19.80;99.90
19646;DHT22;9971;52.446;13.452;2023-09-18T22:16:10;19.80;99.90
19646;DHT22;9971;52.446;13.452;2023-09-18T22:26:43;19.70;99.90
19646;DHT22;9971;52.446;13.452;2023-09-18T22:31:57;19.60;99.90
19646;DHT22;9971;52.446;13.452;2023-09-18T22:37:17;19.60;99.90
19646;DHT22;9971;52.446;13.452;2023-09-18T22:57:57;19.40;99.90
19646;DHT22;9971;52.446;13.452;2023-09-18T23:08:30;19.40;99.90
19646;DHT22;9971;52.446;13.452;2023-09-18T23:13:32;19.40;99.90
19646;DHT22;9971;52.446;13.452;2023-09-18T23:18:38;19.40;99.90
19646;DHT22;9971;52.446;13.452;2023-09-18T23:24:00;19.40;99.90
19646;DHT22;9971;52.446;13.452;2023-09-18T23:34:54;19.30;99.90
